Huvudsida
METAR-TAF:

METAR-TAF

Flygplatser :

McCarran International Airport

Las Vegas, Nevada, USA

latitud: 36-04-44N, longitud: 115-09-19W, höjd: 663 m

Aktuellt väderrapport

Denna rapport gjordes för 50 minuter sedan, klockan 08:56 UTC
Vind 6 kt från syd/sydväst
Temperatur 27°C
Fuktighet 18%
Tryck 1011 hPa
Sikt: 16.1 km
Klar himmel

METAR: KLAS 250856Z 20006KT 10SM CLR 27/01 A2985 RMK AO2 SLP078 T02720011 51008

Tid: 02:46 (09:46 UTC)

Väderprognos

Denna rapport gjordes för 56 minuter sedan, klockan 08:50 UTC
Prognos gäller från 25 kl. 09 UTC till 26 kl. 12 UTC
Vind 5 kt varierande vindriktning
Sikt: 10 km
Spridda moln på en höjd av 25000 ft
Från 25 kl. 1700 UTC
Vind 6 kt från nordost
Sikt: 10 km
Klar himmel
Från 25 kl. 2100 UTC
Vind 7 kt från ost/sydost
Sikt: 10 km
Klar himmel
Från 26 kl. 0000 UTC
Vind 6 kt från syd
Sikt: 10 km
Klar himmel

TAF: KLAS 250850Z 2509/2612 VRB05KT P6SM SCT250 FM251700 05006KT P6SM SKC FM252100 12007KT P6SM SKC FM260000 19006KT P6SM SKC

Aktuella väderrapporter och prognoser från 4000 flygplatser (METAR- och TAF-rapporter).

De tillgängliga stationerna syns som gula och röda prickar på kartan.

För musen över prickarna för att se namnen på stationerna.

Klicka sedan för att få väderrapporter och prognoser.

För att ändra kartan: Klicka på de gröna knapparna med ett svart kors på för att zooma in; den gröna knappen med ett streck på för att zooma ut; eller på de gröna pilarna för angränsande kartor.


METAR-TAF: